Time;durP1;ratioP1;P1;durP2;ratioP2;P2;SDS_P1;SDS_P2;PMS_P1;PMS_P2;Temp;Humidity;BMP_temperature;BMP_pressure;BME280_temperature;BME280_humidity;BME280_pressure;Samples;Min_cycle;Max_cycle;Signal;HPM_P1;HPM_P2
2023/04/04 00:00:25;;;;;;;5.30;1.60;;;-3.40;99.90;;;-3.13;94.44;102242.66;4865297;29;20375;-75
2023/04/04 00:02:50;;;;;;;7.20;2.45;;;-3.50;99.90;;;-3.23;94.52;102230.75;4861549;29;20056;-75
2023/04/04 00:05:16;;;;;;;5.93;1.70;;;-3.60;99.90;;;-3.30;95.55;102221.38;4862476;29;20057;-75
2023/04/04 00:07:46;;;;;;;5.40;1.95;;;-3.50;99.90;;;-3.24;96.26;102232.56;4862637;29;20050;-75
2023/04/04 00:10:11;;;;;;;6.07;2.55;;;-3.50;99.90;;;-3.25;96.69;102216.63;4873826;29;20044;-75
2023/04/04 00:12:37;;;;;;;6.07;1.58;;;-3.40;99.90;;;-3.09;96.89;102225.50;4861440;29;20042;-75
2023/04/04 00:15:04;;;;;;;2.92;1.45;;;-3.40;99.90;;;-3.11;97.44;102229.19;4862282;29;20464;-75
2023/04/04 00:17:29;;;;;;;6.47;1.60;;;-3.40;99.90;;;-3.14;97.49;102230.25;4855408;29;20033;-75
2023/04/04 00:19:56;;;;;;;6.88;2.03;;;-3.40;99.90;;;-3.26;97.23;102214.91;4859935;29;20049;-75
2023/04/04 00:22:22;;;;;;;5.93;1.92;;;-3.50;99.90;;;-3.21;98.28;102223.50;4861809;29;20037;-75
2023/04/04 00:24:48;;;;;;;5.50;2.20;;;-3.50;99.90;;;-3.16;99.44;102221.47;4861803;29;20116;-74
2023/04/04 00:27:15;;;;;;;7.03;2.13;;;-3.50;99.90;;;-3.14;99.58;102226.69;4861581;29;20029;-75
2023/04/04 00:29:43;;;;;;;6.45;2.25;;;-3.50;99.90;;;-3.19;100.00;102226.94;4863827;29;20029;-75
2023/04/04 00:32:09;;;;;;;4.03;1.70;;;-3.60;99.90;;;-3.28;100.00;102212.34;4860141;29;20038;-75
2023/04/04 00:34:35;;;;;;;3.50;1.85;;;-3.60;99.90;;;-3.24;100.00;102223.69;4861745;29;20122;-75
2023/04/04 00:37:01;;;;;;;6.60;1.98;;;-3.60;99.90;;;-3.25;100.00;102229.97;4859914;29;20037;-76
2023/04/04 00:39:27;;;;;;;11.68;2.20;;;-3.60;99.90;;;-3.19;100.00;102224.28;4861533;29;20140;-75
2023/04/04 00:41:53;;;;;;;6.18;1.60;;;-3.60;99.90;;;-3.23;100.00;102218.28;4861261;29;20489;-75
2023/04/04 00:44:19;;;;;;;6.63;2.10;;;-3.60;99.90;;;-3.27;100.00;102226.53;4861283;29;20040;-75
2023/04/04 00:46:45;;;;;;;3.67;1.50;;;-3.70;99.90;;;-3.21;100.00;102231.50;4845081;29;20033;-75
2023/04/04 00:49:11;;;;;;;6.15;2.08;;;-3.60;99.90;;;-3.29;100.00;102218.63;4841877;29;20048;-75
2023/04/04 00:51:37;;;;;;;4.25;2.03;;;-3.70;99.90;;;-3.25;100.00;102221.97;4868507;29;20025;-76
2023/04/04 00:54:03;;;;;;;5.55;1.88;;;-3.60;99.90;;;-3.26;100.00;102225.59;4849727;29;20088;-75
2023/04/04 00:56:31;;;;;;;5.78;1.98;;;-3.60;99.90;;;-3.33;100.00;102211.72;4868107;29;20034;-75
2023/04/04 00:58:59;;;;;;;4.38;2.10;;;-3.60;99.90;;;-3.25;100.00;102219.28;4846122;29;20041;-75
2023/04/04 01:01:25;;;;;;;6.43;1.88;;;-3.70;99.90;;;-3.31;100.00;102217.88;4864818;29;20033;-75
2023/04/04 01:03:51;;;;;;;5.20;1.80;;;-3.70;99.90;;;-3.44;100.00;102215.03;4861753;29;20111;-75
2023/04/04 01:06:17;;;;;;;3.53;1.90;;;-3.70;99.90;;;-3.54;100.00;102211.13;4844943;29;20052;-75
2023/04/04 01:08:46;;;;;;;4.80;1.92;;;-3.70;99.90;;;-3.48;100.00;102210.78;4844924;29;20537;-76
2023/04/04 01:11:13;;;;;;;6.28;1.98;;;-3.70;99.90;;;-3.53;100.00;102219.06;4855130;29;20128;-75
2023/04/04 01:13:43;;;;;;;5.90;2.10;;;-3.70;99.90;;;-3.42;100.00;102217.59;4865973;29;20047;-75
2023/04/04 01:16:14;;;;;;;6.55;2.17;;;-3.70;99.90;;;-3.50;100.00;102215.34;4850123;29;20520;-75
2023/04/04 01:18:43;;;;;;;4.03;1.70;;;-3.70;99.90;;;-3.15;100.00;102219.63;4858932;29;20382;-75
2023/04/04 01:21:16;;;;;;;6.05;2.08;;;-3.60;99.90;;;-3.34;100.00;102215.34;4857180;29;20048;-75
2023/04/04 01:23:59;;;;;;;6.20;2.35;;;-3.60;99.90;;;-3.23;100.00;102231.63;4865569;29;20372;-75
2023/04/04 01:26:30;;;;;;;4.43;2.22;;;-3.60;99.90;;;-3.27;100.00;102216.72;4854813;29;20442;-75
2023/04/04 01:28:59;;;;;;;5.28;2.28;;;-3.60;99.90;;;-3.37;100.00;102216.38;4863483;29;20033;-75
2023/04/04 01:31:42;;;;;;;6.93;2.20;;;-3.70;99.90;;;-3.43;100.00;102216.75;4853710;29;20066;-75
2023/04/04 01:34:23;;;;;;;5.50;2.10;;;-3.70;99.90;;;-3.64;100.00;102184.97;4859288;29;20041;-75
2023/04/04 01:37:02;;;;;;;12.07;2.72;;;-3.70;99.90;;;-3.53;100.00;102207.50;4861107;29;20128;-75
2023/04/04 01:39:58;;;;;;;7.28;2.33;;;-3.80;99.90;;;-3.59;100.00;102207.88;4844280;29;20493;-75
2023/04/04 01:42:25;;;;;;;5.38;2.22;;;-3.80;99.90;;;-3.61;100.00;102206.16;4840462;29;20052;-74
2023/04/04 01:44:56;;;;;;;5.43;2.50;;;-3.90;99.90;;;-3.46;100.00;102206.22;4857356;29;20038;-74
2023/04/04 01:47:24;;;;;;;4.50;1.90;;;-3.90;99.90;;;-3.52;100.00;102201.22;4860087;29;20116;-75
2023/04/04 01:49:49;;;;;;;5.65;2.40;;;-3.90;99.90;;;-3.50;100.00;102191.31;4865355;29;20041;-74
2023/04/04 01:52:15;;;;;;;7.53;2.88;;;-3.90;99.90;;;-3.50;100.00;102197.53;4855220;29;20045;-75
2023/04/04 01:54:41;;;;;;;6.25;2.35;;;-3.90;99.90;;;-3.52;100.00;102201.22;4860630;29;20033;-75
2023/04/04 01:57:07;;;;;;;7.55;2.50;;;-3.80;99.90;;;-3.63;100.00;102196.50;4858483;29;20065;-75
2023/04/04 01:59:35;;;;;;;9.27;2.65;;;-3.90;99.90;;;-3.85;100.00;102172.84;4868474;29;20036;-75
2023/04/04 02:02:00;;;;;;;5.18;2.28;;;-4.00;99.90;;;-3.77;100.00;102186.59;4843313;29;20045;-75
2023/04/04 02:04:26;;;;;;;8.45;2.63;;;-4.00;99.90;;;-3.78;100.00;102195.53;4853762;29;20038;-75
2023/04/04 02:06:52;;;;;;;5.60;2.08;;;-4.00;99.90;;;-3.86;100.00;102189.78;4859894;29;20390;-74
2023/04/04 02:09:18;;;;;;;7.45;2.50;;;-4.00;99.90;;;-3.93;100.00;102178.56;4866908;29;20451;-75
2023/04/04 02:11:45;;;;;;;7.15;2.28;;;-4.10;99.90;;;-3.88;100.00;102191.66;4846669;29;20047;-75
2023/04/04 02:14:11;;;;;;;4.50;2.08;;;-4.10;99.90;;;-3.93;100.00;102189.25;4843591;29;20557;-75
2023/04/04 02:16:37;;;;;;;8.05;2.53;;;-4.20;99.90;;;-3.95;100.00;102167.13;4838385;29;20037;-75
2023/04/04 02:19:03;;;;;;;4.63;2.33;;;-4.20;99.90;;;-3.91;100.00;102177.56;4858796;29;20450;-75
2023/04/04 02:21:34;;;;;;;6.50;2.78;;;-4.10;99.90;;;-3.85;100.00;102176.34;4859384;29;20093;-75
2023/04/04 02:24:00;;;;;;;6.88;2.38;;;-4.10;99.90;;;-3.80;100.00;102178.75;4860481;29;20046;-75
2023/04/04 02:26:26;;;;;;;5.25;2.05;;;-4.10;99.90;;;-3.76;100.00;102190.97;4860463;29;20037;-75
2023/04/04 02:28:51;;;;;;;7.43;2.65;;;-4.00;99.90;;;-3.82;100.00;102167.31;4857848;29;20040;-75
2023/04/04 02:31:18;;;;;;;5.20;2.67;;;-4.00;99.90;;;-3.85;100.00;102168.34;4861914;29;20049;-75
2023/04/04 02:33:45;;;;;;;8.32;2.53;;;-4.00;99.90;;;-3.76;100.00;102170.50;4843137;29;20181;-75
2023/04/04 02:36:11;;;;;;;7.90;2.70;;;-4.00;99.90;;;-3.69;100.00;102178.16;4869789;29;20045;-74
2023/04/04 02:38:38;;;;;;;6.22;2.47;;;-4.00;99.90;;;-3.85;100.00;102160.34;4865897;29;20065;-74
2023/04/04 02:41:05;;;;;;;7.30;2.80;;;-4.00;99.90;;;-3.69;100.00;102164.81;4859423;29;20041;-74
2023/04/04 02:43:30;;;;;;;7.68;2.90;;;-4.00;99.90;;;-3.66;100.00;102168.19;4862669;29;20108;-74
2023/04/04 02:45:56;;;;;;;7.28;2.60;;;-4.00;99.90;;;-3.71;100.00;102158.72;4859410;29;20105;-74
2023/04/04 02:48:24;;;;;;;8.40;2.60;;;-4.00;99.90;;;-3.73;100.00;102157.94;4843669;29;20044;-74
2023/04/04 02:50:55;;;;;;;6.03;2.60;;;-4.00;99.90;;;-3.69;100.00;102163.03;4859067;29;20634;-75
2023/04/04 02:53:21;;;;;;;5.65;2.33;;;-4.00;99.90;;;-3.77;100.00;102159.91;4866953;29;20379;-75
2023/04/04 02:55:48;;;;;;;5.05;2.58;;;-4.00;99.90;;;-3.77;100.00;102159.91;4864529;29;20056;-75
2023/04/04 02:58:15;;;;;;;8.07;2.85;;;-4.00;99.90;;;-3.85;100.00;102151.50;4855962;29;20510;-74
2023/04/04 03:00:40;;;;;;;5.78;2.78;;;-4.10;99.90;;;-3.85;100.00;102154.16;4846815;29;20130;-74
2023/04/04 03:03:06;;;;;;;7.95;2.80;;;-4.10;99.90;;;-3.94;100.00;102140.41;4874566;29;20041;-74
2023/04/04 03:05:39;;;;;;;5.40;2.72;;;-4.10;99.90;;;-3.91;100.00;102132.22;4886206;29;20033;-74
2023/04/04 03:08:05;;;;;;;11.40;2.97;;;-4.10;99.90;;;-3.84;100.00;102147.88;4883845;29;20087;-74
2023/04/04 03:10:31;;;;;;;6.68;2.42;;;-4.10;99.90;;;-3.84;100.00;102145.22;4866023;29;20065;-76
2023/04/04 03:12:57;;;;;;;6.00;2.40;;;-4.00;99.90;;;-3.85;100.00;102148.81;4866343;29;20036;-74
2023/04/04 03:15:25;;;;;;;6.82;2.90;;;-4.00;99.90;;;-3.80;100.00;102138.75;4893548;29;20066;-75
2023/04/04 03:17:52;;;;;;;6.07;2.70;;;-4.00;99.90;;;-3.81;100.00;102143.25;4901198;29;20068;-76
2023/04/04 03:20:21;;;;;;;6.43;2.53;;;-4.00;99.90;;;-3.63;100.00;102145.81;4896813;29;20149;-75
2023/04/04 03:22:48;;;;;;;7.70;2.58;;;-4.00;99.90;;;-3.67;100.00;102129.13;4885899;29;20041;-74
2023/04/04 03:25:15;;;;;;;6.30;2.87;;;-4.00;99.90;;;-3.43;100.00;102136.69;4874261;29;20043;-75
2023/04/04 03:27:41;;;;;;;5.15;2.95;;;-3.90;99.90;;;-3.29;100.00;102135.00;4889714;29;20307;-76
2023/04/04 03:30:08;;;;;;;5.38;2.35;;;-3.90;99.90;;;-3.46;100.00;102120.81;4854151;29;20136;-76
2023/04/04 03:32:36;;;;;;;8.25;2.97;;;-3.80;99.90;;;-3.48;100.00;102130.72;4889001;29;20052;-76
2023/04/04 03:35:05;;;;;;;6.72;2.92;;;-3.90;99.90;;;-3.55;100.00;102129.34;4879906;29;20056;-76
2023/04/04 03:37:30;;;;;;;5.93;2.65;;;-4.00;99.90;;;-3.71;100.00;102124.91;4873155;29;20056;-75
2023/04/04 03:39:57;;;;;;;7.47;2.67;;;-4.00;99.90;;;-3.73;100.00;102128.59;4888138;29;20105;-76
2023/04/04 03:42:23;;;;;;;8.05;3.00;;;-4.10;99.90;;;-3.76;100.00;102121.63;4883813;29;20029;-76
2023/04/04 03:44:49;;;;;;;7.95;2.58;;;-4.10;99.90;;;-3.82;100.00;102130.84;4889169;29;20073;-75
2023/04/04 03:47:25;;;;;;;4.30;2.40;;;-4.10;99.90;;;-3.75;100.00;102118.00;4861464;29;20090;-75
2023/04/04 03:49:51;;;;;;;5.22;2.72;;;-4.10;99.90;;;-3.70;100.00;102123.09;4882574;29;20069;-76
2023/04/04 03:52:17;;;;;;;8.35;2.78;;;-4.10;99.90;;;-3.61;100.00;102119.88;4858337;29;20124;-74
2023/04/04 03:54:44;;;;;;;6.78;2.83;;;-4.10;99.90;;;-3.72;100.00;102119.66;4872434;29;20040;-75
2023/04/04 03:57:10;;;;;;;10.13;3.30;;;-4.10;99.90;;;-3.66;100.00;102121.97;4870631;29;20044;-74
2023/04/04 03:59:36;;;;;;;8.18;3.00;;;-4.10;99.90;;;-3.63;100.00;102120.00;4865610;29;20137;-76
2023/04/04 04:02:03;;;;;;;7.03;2.95;;;-4.00;99.90;;;-3.53;100.00;102114.13;4858497;29;20057;-77
2023/04/04 04:04:29;;;;;;;5.90;3.00;;;-3.90;99.90;;;-3.64;100.00;102096.94;4867223;29;20041;-76
2023/04/04 04:06:56;;;;;;;6.93;2.85;;;-4.00;99.90;;;-3.56;100.00;102108.97;4859746;29;20037;-78
2023/04/04 04:09:21;;;;;;;7.90;3.00;;;-4.10;99.90;;;-3.75;100.00;102094.00;4845579;29;20052;-79
2023/04/04 04:11:47;;;;;;;5.20;2.55;;;-4.10;99.90;;;-3.71;100.00;102106.25;4857447;29;20041;-78
2023/04/04 04:14:14;;;;;;;10.38;2.70;;;-4.20;99.90;;;-3.73;100.00;102110.78;4854158;29;20078;-76
2023/04/04 04:16:40;;;;;;;6.75;2.50;;;-4.20;99.90;;;-3.83;100.00;102107.78;4846062;29;20029;-75
2023/04/04 04:19:06;;;;;;;9.10;2.80;;;-4.20;99.90;;;-3.70;100.00;102113.28;4846931;29;20065;-75
2023/04/04 04:21:37;;;;;;;6.68;2.67;;;-4.20;99.90;;;-3.49;100.00;102121.00;4847149;29;20033;-76
2023/04/04 04:24:03;;;;;;;9.73;2.90;;;-4.10;99.90;;;-3.61;100.00;102110.09;4862312;29;20486;-75
2023/04/04 04:26:28;;;;;;;6.70;2.58;;;-4.00;99.90;;;-3.49;100.00;102121.00;4845719;29;20041;-76
2023/04/04 04:28:54;;;;;;;8.13;2.90;;;-3.90;99.90;;;-3.28;100.00;102115.38;4852771;29;20057;-76
2023/04/04 04:31:27;;;;;;;6.80;2.78;;;-3.80;99.90;;;-3.34;100.00;102117.44;4856286;29;20042;-75
2023/04/04 04:33:53;;;;;;;7.38;3.25;;;-3.80;99.90;;;-3.35;100.00;102096.16;4866610;29;20068;-76
2023/04/04 04:36:23;;;;;;;6.60;2.70;;;-3.80;99.90;;;-3.18;100.00;102113.88;4848735;29;20108;-75
2023/04/04 04:39:04;;;;;;;11.07;3.55;;;-3.70;99.90;;;-3.29;100.00;102073.59;4851696;29;20386;-76
2023/04/04 04:41:35;;;;;;;8.52;3.00;;;-3.70;99.90;;;-3.10;100.00;102116.09;4840752;29;20037;-75
2023/04/04 04:44:02;;;;;;;8.02;3.10;;;-3.50;99.90;;;-2.96;100.00;102110.78;4845150;29;20057;-75
2023/04/04 04:46:28;;;;;;;7.57;3.20;;;-3.50;99.90;;;-2.93;100.00;102118.63;4843923;29;20427;-76
2023/04/04 04:48:54;;;;;;;7.80;2.80;;;-3.40;99.90;;;-2.83;100.00;102110.03;4844840;29;20046;-75
2023/04/04 04:51:24;;;;;;;5.47;2.85;;;-3.40;99.90;;;-2.92;100.00;102103.44;4861724;29;20422;-76
2023/04/04 04:53:52;;;;;;;8.02;3.17;;;-3.40;99.90;;;-2.83;100.00;102113.56;4869377;29;20089;-76
2023/04/04 04:56:18;;;;;;;6.00;2.85;;;-3.40;99.90;;;-2.80;100.00;102117.84;4861159;29;20385;-76
2023/04/04 04:58:49;;;;;;;8.30;3.45;;;-3.40;99.90;;;-2.85;100.00;102127.97;4861830;29;20029;-75
2023/04/04 05:01:21;;;;;;;11.20;3.72;;;-3.40;99.90;;;-2.86;100.00;102123.59;4874180;29;20390;-76
2023/04/04 05:03:47;;;;;;;7.60;2.80;;;-3.50;99.90;;;-2.95;100.00;102122.31;4874724;29;20033;-76
2023/04/04 05:06:17;;;;;;;6.80;3.30;;;-3.60;99.90;;;-3.07;100.00;102124.78;4859192;29;20087;-76
2023/04/04 05:08:44;;;;;;;10.40;3.60;;;-3.60;99.90;;;-3.09;100.00;102118.69;4861808;29;20037;-76
2023/04/04 05:11:36;;;;;;;8.35;3.40;;;-3.60;99.90;;;-3.06;100.00;102123.81;4874869;29;20667;-75
2023/04/04 05:14:04;;;;;;;7.88;3.38;;;-3.60;99.90;;;-3.05;100.00;102130.88;4860854;29;20041;-76
2023/04/04 05:16:35;;;;;;;7.75;3.35;;;-3.60;99.90;;;-3.27;100.00;102125.97;4858438;29;20034;-76
2023/04/04 05:19:02;;;;;;;5.65;3.03;;;-3.60;99.90;;;-3.18;100.00;102121.91;4839453;29;20045;-75
2023/04/04 05:21:30;;;;;;;6.55;3.08;;;-3.70;99.90;;;-3.16;100.00;102112.00;4843798;29;20037;-75
2023/04/04 05:23:58;;;;;;;9.57;3.30;;;-3.70;99.90;;;-3.07;100.00;102145.28;4862297;29;20045;-75
2023/04/04 05:26:24;;;;;;;8.48;2.90;;;-3.60;99.90;;;-2.91;100.00;102150.59;4867583;29;20033;-76
2023/04/04 05:28:53;;;;;;;7.18;3.10;;;-3.50;99.90;;;-2.96;100.00;102155.31;4852241;29;20557;-76
2023/04/04 05:31:20;;;;;;;6.65;2.85;;;-3.40;99.90;;;-3.04;100.00;102137.09;4875267;29;20085;-76
2023/04/04 05:33:48;;;;;;;5.82;2.95;;;-3.40;99.90;;;-2.85;100.00;102152.88;4857394;29;20064;-75
2023/04/04 05:36:40;;;;;;;9.10;3.03;;;-3.30;99.90;;;-2.92;100.00;102136.34;4874074;29;20064;-76
2023/04/04 05:39:06;;;;;;;7.93;3.35;;;-3.20;99.90;;;-2.54;100.00;102155.50;4860738;29;20049;-75
2023/04/04 05:41:36;;;;;;;6.72;2.70;;;-3.10;99.90;;;-2.48;100.00;102153.31;4866433;29;20033;-76
2023/04/04 05:44:09;;;;;;;9.32;3.40;;;-3.00;99.90;;;-2.59;100.00;102145.09;4865360;29;20385;-76
2023/04/04 05:46:36;;;;;;;8.23;3.63;;;-2.90;99.90;;;-2.28;100.00;102155.69;4860799;29;20556;-75
2023/04/04 05:49:03;;;;;;;8.23;3.00;;;-2.70;99.90;;;-2.23;100.00;102157.16;4849507;29;20679;-75
2023/04/04 05:51:30;;;;;;;10.40;3.53;;;-2.60;99.90;;;-1.98;100.00;102155.59;4861000;29;20400;-75
2023/04/04 05:54:06;;;;;;;10.50;3.05;;;-2.50;99.90;;;-1.85;100.00;102161.03;4855577;29;20434;-75
2023/04/04 05:56:33;;;;;;;11.13;3.13;;;-2.30;99.90;;;-1.91;100.00;102143.53;4845033;29;20057;-76
2023/04/04 05:59:02;;;;;;;5.88;2.58;;;-2.20;99.90;;;-1.57;100.00;102161.91;4856931;29;20045;-76
2023/04/04 06:01:33;;;;;;;6.40;3.10;;;-2.00;99.90;;;-1.55;100.00;102156.47;4846510;29;20141;-75
2023/04/04 06:04:05;;;;;;;10.63;3.30;;;-1.90;99.90;;;-1.61;100.00;102145.19;4844359;29;20038;-76
2023/04/04 06:06:34;;;;;;;8.85;3.35;;;-1.80;99.90;;;-1.50;100.00;102146.31;4867880;29;20045;-76
2023/04/04 06:09:00;;;;;;;6.07;3.05;;;-1.60;99.90;;;-1.32;100.00;102155.84;4844113;29;20110;-76
2023/04/04 06:11:26;;;;;;;6.03;2.80;;;-1.50;99.90;;;-1.32;100.00;102152.28;4870026;29;20112;-75
2023/04/04 06:14:00;;;;;;;12.02;3.28;;;-1.40;99.90;;;-1.06;100.00;102155.91;4857523;29;20043;-76
2023/04/04 06:16:26;;;;;;;6.10;2.80;;;-1.30;99.90;;;-0.84;100.00;102148.22;4862711;29;20030;-76
2023/04/04 06:18:52;;;;;;;6.13;2.97;;;-1.20;99.90;;;-0.59;100.00;102148.25;4847353;29;20040;-77
2023/04/04 06:21:18;;;;;;;7.63;2.78;;;-1.00;99.90;;;-0.42;100.00;102156.09;4867902;29;20549;-77
2023/04/04 06:23:44;;;;;;;8.43;2.35;;;-0.80;99.90;;;-0.27;99.49;102154.97;4849462;29;20041;-74
2023/04/04 06:26:11;;;;;;;7.63;3.00;;;-0.60;99.90;;;-0.06;98.52;102157.13;4861783;29;20083;-80
2023/04/04 06:28:49;;;;;;;5.72;3.10;;;-0.40;99.90;;;0.24;97.97;102167.47;4858409;29;20043;-77
2023/04/04 06:31:18;;;;;;;8.48;2.70;;;-0.20;99.90;;;0.52;97.00;102164.56;4833760;29;20119;-78
2023/04/04 06:33:45;;;;;;;8.25;2.97;;;0.10;99.90;;;0.53;94.80;102169.84;4825708;29;20035;-78
2023/04/04 06:36:12;;;;;;;7.93;3.33;;;0.20;99.90;;;0.87;93.84;102163.78;4822401;29;20368;-78
2023/04/04 06:38:39;;;;;;;7.17;2.70;;;0.40;99.90;;;0.94;92.08;102156.13;4824110;29;20124;-79
2023/04/04 06:41:13;;;;;;;6.15;2.55;;;0.60;99.90;;;1.14;90.85;102168.06;4837557;29;20046;-78
2023/04/04 06:43:39;;;;;;;7.95;2.72;;;0.80;99.90;;;1.34;90.85;102165.66;4828495;29;20041;-78
2023/04/04 06:46:05;;;;;;;5.90;2.38;;;1.10;99.90;;;1.62;89.11;102166.19;4845860;29;20042;-78
2023/04/04 06:48:31;;;;;;;7.78;2.95;;;1.30;99.90;;;1.87;87.46;102159.72;4827637;29;20051;-77
2023/04/04 06:50:57;;;;;;;5.85;2.80;;;1.50;99.90;;;1.92;86.05;102135.97;4829577;29;20663;-77
2023/04/04 06:53:24;;;;;;;6.47;2.25;;;1.60;99.90;;;2.06;83.61;102140.25;4850286;29;20041;-77
2023/04/04 06:55:51;;;;;;;7.85;2.92;;;1.70;99.90;;;1.93;82.38;102150.31;4847215;29;20034;-77
2023/04/04 06:58:17;;;;;;;8.18;2.58;;;1.70;99.90;;;2.08;81.69;102145.53;4846170;29;20030;-77
2023/04/04 07:00:42;;;;;;;5.82;2.45;;;1.80;99.90;;;2.31;81.15;102146.34;4850852;29;20034;-78
2023/04/04 07:03:08;;;;;;;8.85;3.05;;;1.90;99.90;;;2.27;79.60;102147.56;4848656;29;20113;-77
2023/04/04 07:05:38;;;;;;;6.20;2.58;;;1.90;99.90;;;2.24;80.13;102154.06;4856302;29;20052;-77
2023/04/04 07:08:05;;;;;;;9.07;2.90;;;1.90;99.90;;;2.26;80.37;102145.84;4843249;29;20038;-76
2023/04/04 07:10:31;;;;;;;9.57;2.40;;;2.00;99.90;;;2.42;79.42;102150.84;4854980;29;20117;-78
2023/04/04 07:12:57;;;;;;;6.55;2.60;;;2.10;99.90;;;2.36;78.82;102152.19;4827932;29;20050;-78
2023/04/04 07:15:23;;;;;;;6.75;2.22;;;2.10;99.90;;;2.53;79.01;102149.97;4826246;29;20054;-76
2023/04/04 07:17:48;;;;;;;7.97;2.88;;;2.30;99.90;;;2.68;76.92;102156.78;4827800;29;20066;-76
2023/04/04 07:20:14;;;;;;;7.47;2.17;;;2.40;99.90;;;2.96;76.60;102159.88;4827755;29;20050;-76
2023/04/04 07:22:41;;;;;;;8.07;2.70;;;2.40;99.90;;;2.97;76.39;102164.28;4841540;29;20402;-76
2023/04/04 07:25:08;;;;;;;6.50;2.58;;;2.50;99.90;;;2.76;74.48;102152.59;4826366;29;20046;-76
2023/04/04 07:27:34;;;;;;;8.57;2.77;;;2.50;99.90;;;2.44;74.31;102138.97;4817040;29;20136;-76
2023/04/04 07:30:00;;;;;;;6.72;2.78;;;2.40;99.90;;;2.57;76.04;102146.91;4841474;29;20042;-76
2023/04/04 07:32:26;;;;;;;7.43;2.83;;;2.40;99.90;;;2.74;76.85;102166.19;4863383;29;20403;-75
2023/04/04 07:34:52;;;;;;;7.07;2.55;;;2.40;99.90;;;2.70;75.58;102159.34;4846873;29;20085;-75
2023/04/04 07:37:18;;;;;;;8.32;2.92;;;2.40;99.90;;;2.88;76.55;102170.41;4870247;29;20058;-76
2023/04/04 07:39:44;;;;;;;9.23;2.35;;;2.40;99.90;;;3.02;77.26;102171.94;4864295;29;20462;-76
2023/04/04 07:42:10;;;;;;;10.73;2.60;;;2.60;99.90;;;3.01;76.23;102157.63;4857619;29;20041;-76
2023/04/04 07:44:35;;;;;;;7.45;3.05;;;2.60;99.90;;;2.98;71.70;102135.44;4863773;29;20029;-76
2023/04/04 07:47:01;;;;;;;6.85;3.13;;;2.80;99.90;;;3.20;72.28;102150.69;4863460;29;20045;-77
2023/04/04 07:49:27;;;;;;;7.97;3.65;;;2.90;99.90;;;2.97;70.40;102131.03;4867555;29;20045;-76
2023/04/04 07:51:53;;;;;;;13.82;4.65;;;2.90;99.90;;;3.31;72.12;102147.91;4863723;29;20037;-76
2023/04/04 07:54:19;;;;;;;11.75;3.90;;;3.00;99.90;;;3.69;72.27;102142.88;4858654;29;20447;-77
2023/04/04 07:56:45;;;;;;;10.05;4.53;;;3.20;99.90;;;3.70;70.48;102146.41;4863705;29;20048;-76
2023/04/04 07:59:10;;;;;;;9.02;4.22;;;3.30;99.90;;;3.58;68.45;102138.41;4862722;29;20060;-77
2023/04/04 08:01:39;;;;;;;10.75;5.07;;;3.40;99.90;;;3.64;71.56;102144.25;4872776;29;20032;-77
2023/04/04 08:04:05;;;;;;;8.48;4.18;;;3.50;99.90;;;3.74;67.92;102118.16;4863490;29;20112;-77
2023/04/04 08:06:32;;;;;;;9.73;4.70;;;3.60;99.90;;;3.43;68.00;102118.13;4866795;29;20119;-77
2023/04/04 08:08:58;;;;;;;7.13;4.05;;;3.60;99.90;;;3.84;67.82;102134.38;4868661;29;20434;-77
2023/04/04 08:11:24;;;;;;;9.55;5.22;;;3.60;99.90;;;3.84;66.83;102129.84;4864443;29;20033;-77
2023/04/04 08:13:50;;;;;;;11.15;4.55;;;3.60;99.90;;;3.73;67.11;102135.38;4863566;29;20117;-77
2023/04/04 08:16:16;;;;;;;10.75;4.50;;;3.60;99.90;;;3.59;66.50;102102.31;4862679;29;20061;-78
2023/04/04 08:18:42;;;;;;;9.68;4.28;;;3.70;99.90;;;3.75;66.46;102106.38;4862127;29;20499;-79
2023/04/04 08:21:08;;;;;;;8.90;4.30;;;3.70;99.90;;;3.98;67.17;102138.59;4860424;29;20471;-78
2023/04/04 08:23:34;;;;;;;6.93;4.03;;;3.80;99.90;;;4.08;67.19;102107.06;4862584;29;20044;-78
2023/04/04 08:25:59;;;;;;;10.25;3.92;;;4.00;99.90;;;4.48;63.44;102121.50;4856668;29;20065;-78
2023/04/04 08:28:28;;;;;;;6.28;1.90;;;4.20;99.90;;;4.75;60.65;102119.94;4862646;29;20117;-78
2023/04/04 08:30:54;;;;;;;4.72;1.75;;;4.50;99.90;;;4.96;56.96;102084.63;4866259;29;20684;-77
2023/04/04 08:33:22;;;;;;;6.82;2.03;;;4.70;99.90;;;5.22;55.94;102094.84;4843423;29;20044;-77
2023/04/04 08:35:49;;;;;;;5.72;1.70;;;4.70;99.90;;;5.25;57.14;102099.94;4848047;29;20127;-77
2023/04/04 08:38:15;;;;;;;5.30;1.40;;;5.00;99.90;;;5.47;54.30;102087.94;4867811;29;20034;-77
2023/04/04 08:40:45;;;;;;;3.28;1.17;;;5.20;99.90;;;5.06;51.24;102072.97;4865757;29;20382;-78
2023/04/04 08:43:13;;;;;;;6.47;2.20;;;5.30;96.90;;;5.09;52.08;102083.47;4861557;29;20834;-77
2023/04/04 08:45:42;;;;;;;6.32;1.80;;;5.20;97.60;;;5.29;53.88;102078.88;4861902;29;20045;-77
2023/04/04 08:48:13;;;;;;;4.55;1.75;;;5.40;99.50;;;5.33;53.81;102083.00;4863695;29;20497;-77
2023/04/04 08:50:41;;;;;;;5.00;1.70;;;5.50;98.60;;;5.67;52.65;102049.94;4867486;29;20040;-77
2023/04/04 08:53:10;;;;;;;3.22;1.35;;;5.70;97.80;;;5.71;49.61;102061.34;4870585;29;20047;-77
2023/04/04 08:55:41;;;;;;;4.25;1.50;;;5.80;95.10;;;5.08;50.63;102065.53;4864322;29;20034;-78
2023/04/04 08:58:07;;;;;;;5.38;1.58;;;5.60;94.80;;;5.60;53.63;102093.03;4872921;29;20119;-77
2023/04/04 09:00:33;;;;;;;6.05;1.67;;;5.70;98.10;;;5.96;49.70;102062.47;4871105;29;20450;-77
2023/04/04 09:03:26;;;;;;;4.00;1.60;;;5.80;95.00;;;6.06;51.06;102075.16;4876849;29;20113;-77
2023/04/04 09:05:55;;;;;;;3.88;1.10;;;6.00;96.20;;;6.26;47.88;102052.34;4871993;29;20040;-77
2023/04/04 09:08:24;;;;;;;4.82;1.65;;;6.20;93.20;;;6.48;50.26;102071.84;4866862;29;20053;-77
2023/04/04 09:10:51;;;;;;;5.93;1.83;;;6.50;95.00;;;6.56;49.23;102066.53;4861629;29;20045;-78
2023/04/04 09:13:18;;;;;;;5.50;1.23;;;6.70;93.60;;;6.59;49.17;102054.50;4853869;29;20043;-78
2023/04/04 09:15:56;;;;;;;2.88;1.10;;;6.80;94.00;;;6.44;47.42;102054.19;4861622;29;20038;-78
2023/04/04 09:18:22;;;;;;;5.25;1.40;;;6.70;91.40;;;6.46;46.00;102044.91;4850108;29;20381;-78
2023/04/04 09:20:48;;;;;;;5.32;1.13;;;6.70;90.00;;;6.84;46.46;102043.84;4847551;29;20097;-78
2023/04/04 09:23:20;;;;;;;4.55;1.45;;;6.80;90.80;;;7.19;45.84;102034.78;4863743;29;20053;-76
2023/04/04 09:25:55;;;;;;;3.90;1.30;;;7.00;90.10;;;7.38;43.77;102026.56;4873955;29;20046;-76
2023/04/04 09:28:22;;;;;;;2.70;1.00;;;7.20;86.60;;;6.73;44.29;102040.41;4860645;29;20040;-80
2023/04/04 09:30:51;;;;;;;4.07;1.20;;;7.10;86.20;;;7.02;45.05;102039.25;4867858;29;20098;-77
2023/04/04 09:33:23;;;;;;;3.45;1.08;;;7.20;86.80;;;6.97;42.73;102025.31;4840265;29;20036;-75
2023/04/04 09:35:56;;;;;;;3.13;1.08;;;7.20;82.80;;;7.09;44.79;102038.59;4862082;29;20433;-82
2023/04/04 09:38:28;;;;;;;6.82;1.63;;;7.20;86.60;;;7.11;44.01;102034.72;4861074;29;20048;-75
2023/04/04 09:40:55;;;;;;;3.83;1.30;;;7.20;84.80;;;7.44;43.92;102034.06;4828925;29;20561;-76
2023/04/04 09:43:25;;;;;;;5.18;1.40;;;7.40;85.50;;;7.59;43.02;102042.47;4867922;29;20558;-78
2023/04/04 09:45:53;;;;;;;5.28;1.20;;;7.60;84.20;;;7.91;44.42;102049.88;4867901;29;20068;-78
2023/04/04 09:48:33;;;;;;;5.35;1.70;;;7.80;86.10;;;7.90;43.82;102044.63;4861581;29;20120;-79
2023/04/04 09:51:03;;;;;;;2.63;1.02;;;7.90;84.20;;;7.80;41.84;102033.00;4859847;29;20089;-79
2023/04/04 09:53:29;;;;;;;4.97;1.40;;;7.90;81.00;;;8.19;43.94;102046.88;4863881;29;20620;-79
2023/04/04 09:55:56;;;;;;;7.15;1.48;;;8.00;85.00;;;8.53;41.73;102041.53;4861145;29;20049;-79
2023/04/04 09:58:34;;;;;;;4.32;1.33;;;8.30;81.70;;;8.16;40.69;102024.63;4861346;29;20242;-78
2023/04/04 10:01:03;;;;;;;3.45;1.20;;;8.30;78.40;;;8.56;42.08;102049.38;4865231;29;20113;-77
2023/04/04 10:03:29;;;;;;;3.72;1.00;;;;;;;9.09;40.38;102027.22;4840781;29;20117;-77
2023/04/04 10:06:01;;;;;;;4.38;1.13;;;8.60;81.10;;;7.85;36.68;101992.63;4861088;29;20569;-78
2023/04/04 10:08:28;;;;;;;2.55;1.08;;;10.20;62.90;;;7.74;37.90;102008.22;4844894;29;20377;-78
2023/04/04 10:11:03;;;;;;;5.32;1.45;;;10.00;63.60;;;8.72;36.75;102013.16;4865427;29;20045;-76
2023/04/04 10:13:31;;;;;;;3.72;1.05;;;10.70;61.60;;;8.91;35.86;102012.78;4860078;29;20033;-76
2023/04/04 10:16:02;;;;;;;;;;;11.50;58.30;;;10.86;35.45;102020.44;4873462;29;20049;-77